HSSS

Khartoum International Airport

Khartoum, Sudan
METAR HSSS 201430Z 19012KT CAVOK 36/16 Q1009 NOSIG
Observed Flight Rules
Jul-20 @ 14:30 UTC (16 minutes ago) Visual Flight Rules
Wind Visibility Clouds
190° at 12 knots 10,000+ meters
  • Clear skies
Temperatures Readings
Current 36°C / 97°F
Dewpoint 16°C / 61°F
Humidity 30%
Altimeter 29.79" Hg
Pressure 1009 hPa
Elevation 380
METAR HSSS 201430Z 19012KT CAVOK 36/16 Q1009 NOSIG
Observed Flight Rules
Jul-20 @ 14:30 UTC
(16 minutes ago)
VFR
Wind Visibility
190° at 12 knots 10,000+ meters
Clouds
  • Clear skies
Temperature Dewpoint
36°C / 97°F 16°C / 61°F
Humidity Altimeter Pressure
30% 29.79" Hg 1009 hPa